Alpha, Idaho
Current Conditions -  °F | °C
As of 1:51 PM on Tuesday 21 Oct 2014 (Local Time) from KMYL Reporting Station
Light Rain Light Rain  
Wind Chill: 38°   Ceiling: 2500
Heat Index: 41°   Visibility: 6mi
Dew Point: 38°   Wind: 5mph
Humidity: 89%   Direction: 200°SSW
Pressure: 30"   Gusts: NA
Location:  44.4236°N, 115.8°W
Report Text: KMYL 211951Z AUTO 20004KT 6SM -RA BR FEW013 BKN025 OVC033 05/03 A3000 RMK AO2 RAE08B24 SLP154 P0003 T00500033
Loading
Personal Weather Stations






























Interactive Weather Map New forecast layout! Learn more

10-Day Weather Forecast

Advertisements
Track Severe Weather on mobile